Atkinson, Nebraska
Current Conditions -  °F | °C
As of 9:55 PM on Tuesday 25 Nov 2014 (Local Time) from KONL Reporting Station
Overcast Overcast  
Wind Chill: -2°   Ceiling: 4300
Heat Index:   Visibility: 10mi
Dew Point:   Wind: 16mph
Humidity: 90%   Direction: 290°WNW
Pressure: 29.83"   Gusts: 20mph
Location:  42.53°N, 98.98°W
Report Text: KONL 260355Z AUTO 29014G17KT 10SM OVC043 03/02 A2983 RMK AO2 T00320017
Loading
Personal Weather Stations






























Interactive Weather Map New forecast layout! Learn more

10-Day Weather Forecast

Advertisements
Track Severe Weather on mobile